Detall de PIREP

Printer-friendly versionPDF version

[2014/11/05 15:36:00]
Flight IATA:CT1004
Pilot Number:037
Company ICAO:CAT
Aircraft Type:B752/E
PAX:95
Aircraft Registration:PAX
Departing Airport: LFPG
Destination Airport: LEBL
Alternate Airport:LEPA
Online: VATSIM
Route:ERIXU UN860 ETAMO UN855 PPG UP84 ALBER
Flight Level:F330
No Slew and time accel
No pause
Crash detect
Detect pilot in Cockpit between each 30 and 45 minutes
15:36 Zero fuel Weight: 152641 Lbs, Fuel Weight: 24122 Lbs
15:36 VATSIM:LFPG 051500Z 29006KT 9999 FEW031 SCT049 10/06 Q1005 NOSIG
15:36 VATSIM:LEBL 051500Z 21007KT 9999 FEW030 16/09 Q1005 NOSIG
15:43 Parking Brakes off
15:54 Take-off
15:54 Take off Weight: 175414 Lbs
15:54 Wind: 271º @ 006 Knots Heading: 265º
15:54 POS N48º 59´ 50´´ E002º 34´ 58´´
15:54 Gear Up: 193 Knots
15:54 Flaps:2 at 194 Knots
15:54 Flaps:1 at 219 Knots
15:54 Flaps:0 at 217 Knots
16:09 Wind:270º@019 Knots Heading: 185º Ground Speed: 462 Knots Altitude 30121 ft
16:10 TOC
16:10 Fuel Weight: 19135 Lb
16:24 Wind:318º@020 Knots Heading: 181º Ground Speed: 494 Knots Altitude 32814 ft
16:39 Wind:297º@034 Knots Heading: 183º Ground Speed: 494 Knots Altitude 32828 ft
16:41 TOD
16:41 Fuel Weight: 14255 Lb
16:54 Wind:259º@002 Knots Heading: 187º Ground Speed: 305 Knots Altitude 19186 ft
16:59 Flaps:1 at 206 Knots
17:02 Flaps:2 at 186 Knots
17:04 Flaps:3 at 171 Knots
17:05 Flaps:4 at 164 Knots
17:05 Gear Down: 156 Knots
17:06 Flaps:5 at 147 Knots
17:08 TouchDown:Rate -153 ft/min Speed: 121 Knots
17:09 Wind:253º@006 Knots Heading: 246º Ground Speed: 098 Knots Altitude 022 ft
17:09 VATSIM:LEBL 051700Z 25006KT 9999 FEW030 14/09 Q1006 NOSIG
17:09 Land
17:09 Wind:253º@006 Knots
17:09 Heading: 244º
17:09 Flight Duration: 01:15
17:09 Landing Weight: 164730 Lbs
17:09 POS N41º 18´ 02´´E002º 05´ 21´´
17:11 Parking brakes on
17:11 Block to Block Duration: 01:28
17:11 Final Fuel: 11858 Lbls
17:11 Spent Fuel: 12264 Lbls
17:11 Flight Length: 443 NM
17:11 TOD Land Length: 96 NM

Exportar CSV

Powered by Drupal - Modified by Danger4k